Time;durP1;ratioP1;P1;durP2;ratioP2;P2;SDS_P1;SDS_P2;PMS_P1;PMS_P2;Temp;Humidity;BMP_temperature;BMP_pressure;BME280_temperature;BME280_humidity;BME280_pressure;Samples;Min_cycle;Max_cycle;Signal;HPM_P1;HPM_P2
2022/04/10 00:00:13;;;;;;;;;;;3.70;98.60;;;;;;5064856;28;20322;-67
2022/04/10 00:02:41;;;;;;;;;;;3.60;98.80;;;;;;5064240;28;19909;-66
2022/04/10 00:05:08;;;;;;;;;;;3.60;98.70;;;;;;5064458;28;19909;-66
2022/04/10 00:07:34;;;;;;;;;;;3.60;98.70;;;;;;5064865;28;19913;-66
2022/04/10 00:10:00;;;;;;;;;;;3.60;98.80;;;;;;5064571;28;19980;-66
2022/04/10 00:12:25;;;;;;;;;;;3.50;98.90;;;;;;5064301;28;19912;-67
2022/04/10 00:14:51;;;;;;;;;;;3.50;99.20;;;;;;5064572;28;19909;-67
2022/04/10 00:17:17;;;;;;;;;;;3.30;99.50;;;;;;5064241;28;19955;-67
2022/04/10 00:19:45;;;;;;;;;;;3.20;99.80;;;;;;5064391;28;19916;-67
2022/04/10 00:22:10;;;;;;;;;;;3.20;99.70;;;;;;5064131;28;20226;-67
2022/04/10 00:24:36;;;;;;;;;;;3.10;99.70;;;;;;5064024;28;19935;-67
2022/04/10 00:27:02;;;;;;;;;;;3.10;99.80;;;;;;5064236;28;19946;-67
2022/04/10 00:29:27;;;;;;;;;;;3.00;99.90;;;;;;5064213;28;20039;-67
2022/04/10 00:31:53;;;;;;;;;;;3.00;99.90;;;;;;5091456;22;19920;-64
2022/04/10 00:34:19;;;;;;;;;;;3.00;99.90;;;;;;5083896;28;19912;-64
2022/04/10 00:36:44;;;;;;;;;;;2.90;99.90;;;;;;5084096;28;19908;-64
2022/04/10 00:39:10;;;;;;;;;;;2.90;99.90;;;;;;5083809;28;19908;-64
2022/04/10 00:41:36;;;;;;;;;;;2.80;99.90;;;;;;5083371;28;19909;-64
2022/04/10 00:44:20;;;;;;;;;;;2.80;99.90;;;;;;5083890;28;19915;-64
2022/04/10 00:46:46;;;;;;;;;;;2.70;99.90;;;;;;5083532;28;19912;-64
2022/04/10 00:49:11;;;;;;;;;;;2.70;99.90;;;;;;5083751;28;19975;-64
2022/04/10 00:51:46;;;;;;;;;;;2.70;99.90;;;;;;5083404;28;20222;-64
2022/04/10 00:54:31;;;;;;;;;;;2.70;99.90;;;;;;5083764;28;19956;-64
2022/04/10 00:56:57;;;;;;;;;;;2.70;99.90;;;;;;5082750;28;19908;-64
2022/04/10 00:59:23;;;;;;;;;;;2.60;99.90;;;;;;5083704;28;19908;-64
2022/04/10 01:01:48;;;;;;;;;;;2.50;99.90;;;;;;5082879;28;20104;-64
2022/04/10 01:04:14;;;;;;;;;;;2.40;99.90;;;;;;5083369;28;19940;-64
2022/04/10 01:06:40;;;;;;;;;;;2.40;99.90;;;;;;5083517;28;19908;-64
2022/04/10 01:09:06;;;;;;;;;;;2.50;99.90;;;;;;5083285;28;19913;-64
2022/04/10 01:11:32;;;;;;;;;;;2.50;99.90;;;;;;5083274;28;19912;-64
2022/04/10 01:13:58;;;;;;;;;;;2.50;99.90;;;;;;5077098;28;19916;-64
2022/04/10 01:16:24;;;;;;;;;;;2.60;99.90;;;;;;5081427;28;19908;-64
2022/04/10 01:18:50;;;;;;;;;;;2.60;99.90;;;;;;5083310;28;19915;-64
2022/04/10 01:21:23;;;;;;;;;;;2.60;99.90;;;;;;5083042;28;19908;-64
2022/04/10 01:23:50;;;;;;;;;;;2.60;99.90;;;;;;5083193;28;20269;-64
2022/04/10 01:26:15;;;;;;;;;;;2.60;99.90;;;;;;5083215;28;20256;-64
2022/04/10 01:29:07;;;;;;;;;;;2.60;99.90;;;;;;5083142;28;19913;-64
2022/04/10 01:31:34;;;;;;;;;;;2.60;99.90;;;;;;5082448;28;20107;-64
2022/04/10 01:34:01;;;;;;;;;;;2.50;99.90;;;;;;5083012;28;19915;-63
2022/04/10 01:36:28;;;;;;;;;;;2.50;99.90;;;;;;5082391;28;19912;-64
2022/04/10 01:38:55;;;;;;;;;;;2.40;99.90;;;;;;5083066;28;20093;-64
2022/04/10 01:41:26;;;;;;;;;;;2.40;99.90;;;;;;5082661;28;20203;-64
2022/04/10 01:43:53;;;;;;;;;;;2.40;99.90;;;;;;5082985;28;19916;-63
2022/04/10 01:46:19;;;;;;;;;;;2.30;99.90;;;;;;5082612;28;19915;-64
2022/04/10 01:48:45;;;;;;;;;;;2.20;99.90;;;;;;5082776;28;20111;-64
2022/04/10 01:51:11;;;;;;;;;;;2.20;99.90;;;;;;5081534;28;19915;-65
2022/04/10 01:53:37;;;;;;;;;;;2.20;99.90;;;;;;5082873;28;19908;-65
2022/04/10 01:56:03;;;;;;;;;;;2.20;99.90;;;;;;5082887;28;19919;-65
2022/04/10 01:58:29;;;;;;;;;;;2.20;99.90;;;;;;5083016;28;19909;-65
2022/04/10 02:00:55;;;;;;;;;;;2.10;99.90;;;;;;5082283;28;19915;-65
2022/04/10 02:03:21;;;;;;;;;;;2.00;99.90;;;;;;5082217;28;19909;-65
2022/04/10 02:05:47;;;;;;;;;;;2.00;99.90;;;;;;5082827;28;19913;-65
2022/04/10 02:08:13;;;;;;;;;;;2.00;99.90;;;;;;5082657;28;19954;-64
2022/04/10 02:10:39;;;;;;;;;;;1.90;99.90;;;;;;5082487;28;19999;-64
2022/04/10 02:13:07;;;;;;;;;;;1.90;99.90;;;;;;5082741;28;19909;-65
2022/04/10 02:15:36;;;;;;;;;;;1.90;99.90;;;;;;5082718;28;19916;-65
2022/04/10 02:18:02;;;;;;;;;;;2.00;99.90;;;;;;5082475;28;19915;-64
2022/04/10 02:20:28;;;;;;;;;;;2.00;99.90;;;;;;5082519;28;19936;-65
2022/04/10 02:22:54;;;;;;;;;;;1.90;99.90;;;;;;5082441;28;19908;-65
2022/04/10 02:25:20;;;;;;;;;;;1.90;99.90;;;;;;5082603;28;20221;-64
2022/04/10 02:27:45;;;;;;;;;;;1.90;99.90;;;;;;5082486;28;19966;-64
2022/04/10 02:30:12;;;;;;;;;;;1.90;99.90;;;;;;5064760;28;19908;-65
2022/04/10 02:32:41;;;;;;;;;;;1.80;99.90;;;;;;5081866;28;19997;-65
2022/04/10 02:35:08;;;;;;;;;;;1.70;99.90;;;;;;5064796;28;19908;-65
2022/04/10 02:37:34;;;;;;;;;;;1.60;99.90;;;;;;5082564;28;19910;-65
2022/04/10 02:40:01;;;;;;;;;;;1.60;99.90;;;;;;5082460;28;20245;-65
2022/04/10 02:42:27;;;;;;;;;;;1.50;99.90;;;;;;5064311;28;19971;-65
2022/04/10 02:44:54;;;;;;;;;;;1.50;99.90;;;;;;5082660;28;19912;-66
2022/04/10 02:47:20;;;;;;;;;;;1.50;99.90;;;;;;5084221;28;19912;-65
2022/04/10 02:49:46;;;;;;;;;;;1.50;99.90;;;;;;5086323;28;19912;-65
2022/04/10 02:52:12;;;;;;;;;;;1.60;99.90;;;;;;5085834;28;20146;-64
2022/04/10 02:54:38;;;;;;;;;;;1.50;99.90;;;;;;5086108;28;19909;-65
2022/04/10 02:57:04;;;;;;;;;;;1.60;99.90;;;;;;5085964;28;19972;-65
2022/04/10 02:59:29;;;;;;;;;;;1.60;99.90;;;;;;5085899;28;19916;-65
2022/04/10 03:01:55;;;;;;;;;;;1.60;99.90;;;;;;5085334;28;19908;-64
2022/04/10 03:04:21;;;;;;;;;;;1.60;99.90;;;;;;5085407;28;19909;-65
2022/04/10 03:06:46;;;;;;;;;;;1.60;99.90;;;;;;5085830;28;19908;-64
2022/04/10 03:09:12;;;;;;;;;;;1.60;99.90;;;;;;5085630;28;19979;-65
2022/04/10 03:11:38;;;;;;;;;;;1.70;99.90;;;;;;5085469;28;19915;-65
2022/04/10 03:14:03;;;;;;;;;;;1.70;99.90;;;;;;5085691;28;19908;-65
2022/04/10 03:16:29;;;;;;;;;;;1.60;99.90;;;;;;5085441;28;19909;-64
2022/04/10 03:18:55;;;;;;;;;;;1.50;99.90;;;;;;5085569;28;19951;-65
2022/04/10 03:21:20;;;;;;;;;;;1.50;99.90;;;;;;5084964;28;19912;-65
2022/04/10 03:23:46;;;;;;;;;;;1.50;99.90;;;;;;5085390;28;19909;-65
2022/04/10 03:26:12;;;;;;;;;;;1.50;99.90;;;;;;5085416;28;19912;-65
2022/04/10 03:28:37;;;;;;;;;;;1.40;99.90;;;;;;5085447;28;19913;-65
2022/04/10 03:31:03;;;;;;;;;;;1.30;99.90;;;;;;5084492;28;19913;-65
2022/04/10 03:33:29;;;;;;;;;;;1.30;99.90;;;;;;5085320;28;19931;-65
2022/04/10 03:35:55;;;;;;;;;;;1.40;99.90;;;;;;5085208;28;19908;-65
2022/04/10 03:38:20;;;;;;;;;;;1.30;99.90;;;;;;5085101;28;19980;-65
2022/04/10 03:40:46;;;;;;;;;;;1.30;99.90;;;;;;5084635;28;19913;-66
2022/04/10 03:43:12;;;;;;;;;;;1.30;99.90;;;;;;5085167;28;19916;-65
2022/04/10 03:45:38;;;;;;;;;;;1.30;99.90;;;;;;5085082;28;20097;-65
2022/04/10 03:48:07;;;;;;;;;;;1.30;99.90;;;;;;5084735;28;19917;-65
2022/04/10 03:50:34;;;;;;;;;;;1.40;99.90;;;;;;5084722;28;19951;-65
2022/04/10 03:53:03;;;;;;;;;;;1.40;99.90;;;;;;5084724;28;20018;-65
2022/04/10 03:55:29;;;;;;;;;;;1.40;99.90;;;;;;5084999;28;19922;-65
2022/04/10 03:57:54;;;;;;;;;;;1.30;99.90;;;;;;5084587;28;20200;-65
2022/04/10 04:00:20;;;;;;;;;;;1.30;99.90;;;;;;5066637;28;19908;-65
2022/04/10 04:02:46;;;;;;;;;;;1.30;99.90;;;;;;5084130;28;19954;-64
2022/04/10 04:05:12;;;;;;;;;;;1.30;99.90;;;;;;5084692;28;19908;-65
2022/04/10 04:07:38;;;;;;;;;;;1.30;99.90;;;;;;5084561;28;19932;-65
2022/04/10 04:10:04;;;;;;;;;;;1.30;99.90;;;;;;5084595;28;20103;-65
2022/04/10 04:12:30;;;;;;;;;;;1.40;99.90;;;;;;5084319;28;19950;-65
2022/04/10 04:14:56;;;;;;;;;;;1.40;99.90;;;;;;5084542;28;19950;-64
2022/04/10 04:17:21;;;;;;;;;;;1.40;99.90;;;;;;5084120;28;19912;-64
2022/04/10 04:19:50;;;;;;;;;;;1.40;99.80;;;;;;5084312;28;19915;-65
2022/04/10 04:22:16;;;;;;;;;;;1.40;99.90;;;;;;5083992;28;19915;-64
2022/04/10 04:24:42;;;;;;;;;;;1.30;99.90;;;;;;5084174;28;19931;-63
2022/04/10 04:27:07;;;;;;;;;;;1.30;99.90;;;;;;5084246;28;20250;-65
2022/04/10 04:29:33;;;;;;;;;;;1.30;99.90;;;;;;5084201;28;19915;-65
2022/04/10 04:31:59;;;;;;;;;;;1.30;99.80;;;;;;5083357;28;19912;-65
2022/04/10 04:34:25;;;;;;;;;;;1.30;99.70;;;;;;5083946;28;20481;-64
2022/04/10 04:36:50;;;;;;;;;;;1.30;99.60;;;;;;5083952;28;19913;-64
2022/04/10 04:39:16;;;;;;;;;;;1.30;99.50;;;;;;5083930;28;19908;-64
2022/04/10 04:41:42;;;;;;;;;;;1.40;99.50;;;;;;5083608;28;19915;-65
2022/04/10 04:44:07;;;;;;;;;;;1.30;99.50;;;;;;5083879;28;19908;-65
2022/04/10 04:46:33;;;;;;;;;;;1.30;99.40;;;;;;5083495;28;19908;-64
2022/04/10 04:48:59;;;;;;;;;;;1.30;99.20;;;;;;5083522;28;19913;-64
2022/04/10 04:51:25;;;;;;;;;;;1.30;99.10;;;;;;5083258;28;19909;-64
2022/04/10 04:53:50;;;;;;;;;;;1.40;99.10;;;;;;5083611;28;19909;-65
2022/04/10 04:56:16;;;;;;;;;;;1.30;99.00;;;;;;5083516;28;19971;-64
2022/04/10 04:58:42;;;;;;;;;;;1.30;99.10;;;;;;5083518;28;20204;-64
2022/04/10 05:01:08;;;;;;;;;;;1.30;99.10;;;;;;5083033;28;20245;-65
2022/04/10 05:03:34;;;;;;;;;;;1.30;99.20;;;;;;5083437;28;19908;-65
2022/04/10 05:06:00;;;;;;;;;;;1.20;99.20;;;;;;5083395;28;19908;-65
2022/04/10 05:08:26;;;;;;;;;;;1.20;99.20;;;;;;5077536;28;19916;-65
2022/04/10 05:10:52;;;;;;;;;;;1.30;99.10;;;;;;5082133;28;20330;-65
2022/04/10 05:13:17;;;;;;;;;;;1.30;99.30;;;;;;5083315;28;19908;-65
2022/04/10 05:15:43;;;;;;;;;;;1.20;99.30;;;;;;5083427;28;19909;-65
2022/04/10 05:18:08;;;;;;;;;;;1.30;99.20;;;;;;5081955;28;19909;-65
2022/04/10 05:20:34;;;;;;;;;;;1.30;99.30;;;;;;5082893;28;19931;-64
2022/04/10 05:23:00;;;;;;;;;;;1.30;99.20;;;;;;5083169;28;19976;-65
2022/04/10 05:25:26;;;;;;;;;;;1.30;99.50;;;;;;5065719;28;19913;-65
2022/04/10 05:27:51;;;;;;;;;;;1.30;99.30;;;;;;5082758;28;19923;-65
2022/04/10 05:30:17;;;;;;;;;;;1.30;99.30;;;;;;5083031;28;19919;-65
2022/04/10 05:32:43;;;;;;;;;;;1.40;99.30;;;;;;5082334;28;19912;-65
2022/04/10 05:35:09;;;;;;;;;;;1.40;98.90;;;;;;5082984;28;19908;-64
2022/04/10 05:37:35;;;;;;;;;;;1.50;99.10;;;;;;5083052;28;19982;-65
2022/04/10 05:40:02;;;;;;;;;;;1.50;98.90;;;;;;5083005;28;19935;-65
2022/04/10 05:42:28;;;;;;;;;;;1.60;98.80;;;;;;5079369;28;19931;-65
2022/04/10 05:45:03;;;;;;;;;;;1.60;98.60;;;;;;5081099;28;19912;-65
2022/04/10 05:47:28;;;;;;;;;;;1.70;98.40;;;;;;5076482;28;19916;-69
2022/04/10 05:49:54;;;;;;;;;;;1.70;98.70;;;;;;5074160;28;19955;-67
2022/04/10 05:52:20;;;;;;;;;;;1.80;98.60;;;;;;5066312;28;19912;-68
2022/04/10 05:54:46;;;;;;;;;;;1.80;98.60;;;;;;5080650;28;20047;-68
2022/04/10 05:57:11;;;;;;;;;;;1.80;98.60;;;;;;5081029;28;19920;-68
2022/04/10 05:59:37;;;;;;;;;;;1.90;98.30;;;;;;5082755;28;19916;-68
2022/04/10 06:02:03;;;;;;;;;;;1.90;98.20;;;;;;5082144;28;20144;-68
2022/04/10 06:04:28;;;;;;;;;;;2.00;98.20;;;;;;5082767;28;19916;-68
2022/04/10 06:06:54;;;;;;;;;;;2.10;97.60;;;;;;5064911;28;20200;-68
2022/04/10 06:09:20;;;;;;;;;;;2.10;97.20;;;;;;5064846;28;19958;-68
2022/04/10 06:11:45;;;;;;;;;;;2.10;97.60;;;;;;5082303;28;20144;-69
2022/04/10 06:14:11;;;;;;;;;;;2.20;97.60;;;;;;5082720;28;19915;-69
2022/04/10 06:16:37;;;;;;;;;;;2.30;97.50;;;;;;5082350;28;20111;-68
2022/04/10 06:19:02;;;;;;;;;;;2.30;96.80;;;;;;5082824;28;19953;-68
2022/04/10 06:21:28;;;;;;;;;;;2.50;96.60;;;;;;5082785;28;19909;-69
2022/04/10 06:23:54;;;;;;;;;;;2.50;96.60;;;;;;5086551;28;20199;-68
2022/04/10 06:26:20;;;;;;;;;;;2.50;96.30;;;;;;5068633;28;19908;-69
2022/04/10 06:28:45;;;;;;;;;;;2.60;96.30;;;;;;5086396;28;19983;-69
2022/04/10 06:31:11;;;;;;;;;;;2.70;96.10;;;;;;5085742;28;19912;-68
2022/04/10 06:33:37;;;;;;;;;;;2.80;95.70;;;;;;5068252;28;19908;-68
2022/04/10 06:36:03;;;;;;;;;;;2.80;95.60;;;;;;5086300;28;19915;-68
2022/04/10 06:38:28;;;;;;;;;;;2.80;96.00;;;;;;5079331;28;19965;-68
2022/04/10 06:40:54;;;;;;;;;;;2.80;96.10;;;;;;5081176;28;19912;-69
2022/04/10 06:43:20;;;;;;;;;;;2.80;95.80;;;;;;5084866;28;19979;-69
2022/04/10 06:45:47;;;;;;;;;;;2.80;95.30;;;;;;5085107;28;19908;-68
2022/04/10 06:48:13;;;;;;;;;;;3.00;95.00;;;;;;5084353;28;19916;-68
2022/04/10 06:50:39;;;;;;;;;;;3.10;95.20;;;;;;5084347;28;19912;-68
2022/04/10 06:53:05;;;;;;;;;;;3.20;94.50;;;;;;5084741;28;20282;-68
2022/04/10 06:55:31;;;;;;;;;;;3.30;94.30;;;;;;5081662;28;19954;-69
2022/04/10 06:57:57;;;;;;;;;;;3.30;94.00;;;;;;5084704;28;19952;-68
2022/04/10 07:00:23;;;;;;;;;;;3.40;93.70;;;;;;5084429;28;19968;-68
2022/04/10 07:02:48;;;;;;;;;;;3.40;93.50;;;;;;5083379;28;20223;-69
2022/04/10 07:05:14;;;;;;;;;;;3.60;93.20;;;;;;5080514;28;19962;-68
2022/04/10 07:07:40;;;;;;;;;;;3.70;93.30;;;;;;5083884;28;20258;-68
2022/04/10 07:10:06;;;;;;;;;;;3.70;93.40;;;;;;5075878;28;20060;-68
2022/04/10 07:12:32;;;;;;;;;;;3.90;93.30;;;;;;5076659;28;20231;-68
2022/04/10 07:15:01;;;;;;;;;;;4.00;92.80;;;;;;5084455;28;19915;-68
2022/04/10 07:17:27;;;;;;;;;;;4.10;91.60;;;;;;5082588;28;19912;-68
2022/04/10 07:19:53;;;;;;;;;;;4.10;91.70;;;;;;5078216;28;19912;-68
2022/04/10 07:25:03;;;;;;;;;;;4.20;91.80;;;;;;5084289;28;19923;-68
2022/04/10 07:27:29;;;;;;;;;;;4.30;91.20;;;;;;5084469;28;19920;-68
2022/04/10 07:29:55;;;;;;;;;;;4.40;90.90;;;;;;5079843;28;19908;-67
2022/04/10 07:32:20;;;;;;;;;;;4.30;90.30;;;;;;5081200;28;19912;-68
2022/04/10 07:34:46;;;;;;;;;;;4.20;90.20;;;;;;5082560;28;19912;-68
2022/04/10 07:37:12;;;;;;;;;;;4.20;90.90;;;;;;5083983;28;19912;-69
2022/04/10 07:39:37;;;;;;;;;;;4.10;89.90;;;;;;5084060;28;19916;-69
2022/04/10 07:42:03;;;;;;;;;;;4.10;90.40;;;;;;5083752;28;19975;-68
2022/04/10 07:44:29;;;;;;;;;;;4.10;90.20;;;;;;5083762;28;19975;-68
2022/04/10 07:49:39;;;;;;;;;;;4.20;90.00;;;;;;5082961;28;20222;-68
2022/04/10 07:52:05;;;;;;;;;;;4.40;90.00;;;;;;5083435;28;19912;-68
2022/04/10 07:54:30;;;;;;;;;;;4.70;88.90;;;;;;5083916;28;19936;-68
2022/04/10 07:56:56;;;;;;;;;;;4.90;86.80;;;;;;5083850;28;19915;-68
2022/04/10 07:59:23;;;;;;;;;;;5.20;86.00;;;;;;5083869;28;19913;-69
2022/04/10 08:01:49;;;;;;;;;;;5.40;83.40;;;;;;5083060;28;19908;-68
2022/04/10 08:04:15;;;;;;;;;;;5.60;84.00;;;;;;5083258;28;19972;-68
2022/04/10 08:06:41;;;;;;;;;;;5.70;80.70;;;;;;5083626;28;19915;-68
2022/04/10 08:09:06;;;;;;;;;;;5.90;81.20;;;;;;5083398;28;20106;-69
2022/04/10 08:11:32;;;;;;;;;;;5.90;79.20;;;;;;5084476;28;19944;-69
2022/04/10 08:13:58;;;;;;;;;;;5.60;79.90;;;;;;5086795;28;19913;-68
2022/04/10 08:16:23;;;;;;;;;;;5.70;81.30;;;;;;5083514;28;20115;-68
2022/04/10 08:18:49;;;;;;;;;;;5.80;81.40;;;;;;5083097;28;19976;-68
2022/04/10 08:21:15;;;;;;;;;;;5.90;81.40;;;;;;5082854;28;20033;-68
2022/04/10 08:23:41;;;;;;;;;;;6.10;80.60;;;;;;5083180;28;19915;-68
2022/04/10 08:26:06;;;;;;;;;;;6.10;81.90;;;;;;5065430;28;20110;-69
2022/04/10 08:28:34;;;;;;;;;;;5.90;80.40;;;;;;5083041;28;19917;-69
2022/04/10 08:31:00;;;;;;;;;;;5.90;81.00;;;;;;5082730;28;20203;-69
2022/04/10 08:33:26;;;;;;;;;;;6.00;83.80;;;;;;5082981;28;19915;-68
2022/04/10 08:35:51;;;;;;;;;;;5.90;78.30;;;;;;5083195;28;19930;-69
2022/04/10 08:38:17;;;;;;;;;;;5.60;79.40;;;;;;5082904;28;19908;-69
2022/04/10 08:40:44;;;;;;;;;;;5.70;80.80;;;;;;5082678;28;19908;-69
2022/04/10 08:43:10;;;;;;;;;;;5.60;80.30;;;;;;5065039;28;20005;-69
2022/04/10 08:45:36;;;;;;;;;;;5.60;81.50;;;;;;5082903;28;19909;-68
2022/04/10 08:48:03;;;;;;;;;;;5.70;81.70;;;;;;5064849;28;19919;-68
2022/04/10 08:50:28;;;;;;;;;;;5.80;79.20;;;;;;5064980;28;20203;-69
2022/04/10 08:52:58;;;;;;;;;;;5.90;78.00;;;;;;5082642;28;19915;-68
2022/04/10 08:55:27;;;;;;;;;;;5.90;77.80;;;;;;5083352;28;19909;-68
2022/04/10 08:57:53;;;;;;;;;;;5.90;77.00;;;;;;5065421;28;19915;-68
2022/04/10 09:00:19;;;;;;;;;;;6.00;76.90;;;;;;5082827;28;19908;-68
2022/04/10 09:02:52;;;;;;;;;;;6.10;74.10;;;;;;5082390;28;19912;-68
2022/04/10 09:05:19;;;;;;;;;;;6.10;72.90;;;;;;5082666;28;20171;-68
2022/04/10 09:08:13;;;;;;;;;;;6.30;73.10;;;;;;5064702;28;20099;-68
2022/04/10 09:11:00;;;;;;;;;;;6.30;73.40;;;;;;5082067;28;20212;-68
2022/04/10 09:13:27;;;;;;;;;;;6.60;73.50;;;;;;5082424;28;19914;-68
2022/04/10 09:16:13;;;;;;;;;;;6.80;73.10;;;;;;5082078;28;20085;-68
2022/04/10 09:19:00;;;;;;;;;;;7.00;71.70;;;;;;5082139;28;19977;-68
2022/04/10 09:21:29;;;;;;;;;;;7.10;68.50;;;;;;5081842;28;20116;-68
2022/04/10 09:23:58;;;;;;;;;;;6.90;66.40;;;;;;5082180;28;19915;-68
2022/04/10 09:26:24;;;;;;;;;;;6.90;69.20;;;;;;5082108;28;19991;-69
2022/04/10 09:28:50;;;;;;;;;;;7.00;69.50;;;;;;5081826;28;19912;-69
2022/04/10 09:31:33;;;;;;;;;;;7.40;69.70;;;;;;5081810;28;19973;-69
2022/04/10 09:34:02;;;;;;;;;;;7.60;68.80;;;;;;5081564;28;19936;-68
2022/04/10 09:36:32;;;;;;;;;;;7.60;67.90;;;;;;5082438;28;19908;-70
2022/04/10 09:38:58;;;;;;;;;;;7.50;65.50;;;;;;5064087;28;19915;-69
2022/04/10 09:41:23;;;;;;;;;;;7.10;65.70;;;;;;5064043;28;19908;-69
2022/04/10 09:43:49;;;;;;;;;;;6.90;68.20;;;;;;5082012;28;19916;-69
2022/04/10 09:46:15;;;;;;;;;;;6.70;69.30;;;;;;5082098;28;19916;-69
2022/04/10 09:48:41;;;;;;;;;;;7.00;70.40;;;;;;5081591;28;20161;-69
2022/04/10 09:51:07;;;;;;;;;;;7.30;71.70;;;;;;5081613;28;19957;-70
2022/04/10 09:53:33;;;;;;;;;;;7.70;71.70;;;;;;5063930;28;20088;-70
2022/04/10 09:56:00;;;;;;;;;;;7.80;68.20;;;;;;5063803;28;19947;-70
2022/04/10 09:58:26;;;;;;;;;;;8.00;67.50;;;;;;5081849;28;19913;-69
2022/04/10 10:00:55;;;;;;;;;;;7.80;64.80;;;;;;5063658;28;19997;-69
2022/04/10 10:03:26;;;;;;;;;;;7.70;64.30;;;;;;5081255;28;20138;-69
2022/04/10 10:05:53;;;;;;;;;;;7.70;65.60;;;;;;5081741;28;20210;-69
2022/04/10 10:08:19;;;;;;;;;;;7.50;65.80;;;;;;5081687;28;19987;-69
2022/04/10 10:10:44;;;;;;;;;;;7.60;66.80;;;;;;5081480;28;19939;-69
2022/04/10 10:13:12;;;;;;;;;;;7.60;64.70;;;;;;5063738;28;19951;-69
2022/04/10 10:15:38;;;;;;;;;;;7.80;64.60;;;;;;5081603;28;19980;-69
2022/04/10 10:18:05;;;;;;;;;;;7.90;63.60;;;;;;5081309;28;19948;-70
2022/04/10 10:20:31;;;;;;;;;;;8.20;62.80;;;;;;5081601;28;20146;-69
2022/04/10 10:22:57;;;;;;;;;;;8.50;61.90;;;;;;5081367;28;19909;-69
2022/04/10 10:25:27;;;;;;;;;;;8.60;58.50;;;;;;5081493;28;19979;-69
2022/04/10 10:28:24;;;;;;;;;;;8.30;59.30;;;;;;5063820;28;19919;-69
2022/04/10 10:31:14;;;;;;;;;;;7.90;57.40;;;;;;5081032;28;19958;-70
2022/04/10 10:33:47;;;;;;;;;;;7.80;59.50;;;;;;5081252;28;20195;-69
2022/04/10 10:36:13;;;;;;;;;;;7.90;57.90;;;;;;5081513;28;20116;-70
2022/04/10 10:38:45;;;;;;;;;;;7.90;57.90;;;;;;5046851;28;19915;-69
2022/04/10 10:41:16;;;;;;;;;;;8.20;58.80;;;;;;5046996;28;19939;-68
2022/04/10 10:43:42;;;;;;;;;;;8.50;58.60;;;;;;5081402;28;19946;-69
2022/04/10 10:46:32;;;;;;;;;;;8.60;59.40;;;;;;5081288;28;20158;-69
2022/04/10 10:49:17;;;;;;;;;;;8.40;57.40;;;;;;5080997;28;19948;-69
2022/04/10 10:51:53;;;;;;;;;;;8.30;57.10;;;;;;5081072;28;20188;-69
2022/04/10 10:54:32;;;;;;;;;;;8.50;56.70;;;;;;5081395;28;19912;-69
2022/04/10 10:56:58;;;;;;;;;;;8.50;58.70;;;;;;5081194;28;19979;-69
2022/04/10 10:59:30;;;;;;;;;;;8.30;57.60;;;;;;5081127;28;19947;-68
2022/04/10 11:02:04;;;;;;;;;;;8.50;57.30;;;;;;5080748;28;20200;-69
2022/04/10 11:04:34;;;;;;;;;;;9.00;56.70;;;;;;5081247;28;20260;-69
2022/04/10 11:07:18;;;;;;;;;;;9.10;56.40;;;;;;5081161;28;19919;-68
2022/04/10 11:09:58;;;;;;;;;;;9.20;55.20;;;;;;5083525;28;19923;-68
2022/04/10 11:12:31;;;;;;;;;;;9.10;54.90;;;;;;5084305;28;19908;-68
2022/04/10 11:14:59;;;;;;;;;;;8.90;55.10;;;;;;5084575;28;20190;-68
2022/04/10 11:17:31;;;;;;;;;;;9.10;54.20;;;;;;5084409;28;19965;-69
2022/04/10 11:20:07;;;;;;;;;;;9.30;53.90;;;;;;5084525;28;19912;-69
2022/04/10 11:22:46;;;;;;;;;;;8.90;55.20;;;;;;5066296;28;19971;-69
2022/04/10 11:25:11;;;;;;;;;;;9.00;55.40;;;;;;5066889;28;19909;-69
2022/04/10 11:27:51;;;;;;;;;;;8.90;54.80;;;;;;5084449;28;20120;-68
2022/04/10 11:30:43;;;;;;;;;;;8.90;52.90;;;;;;5084234;28;19916;-68
2022/04/10 11:33:10;;;;;;;;;;;9.00;55.30;;;;;;5083978;28;20059;-69
2022/04/10 11:35:37;;;;;;;;;;;8.60;55.10;;;;;;5084125;28;20099;-68
2022/04/10 11:38:07;;;;;;;;;;;8.70;54.90;;;;;;5083900;28;19915;-68
2022/04/10 11:40:33;;;;;;;;;;;8.80;55.10;;;;;;5083852;28;19916;-69
2022/04/10 11:43:00;;;;;;;;;;;8.70;54.50;;;;;;5066016;28;19928;-70
2022/04/10 11:45:29;;;;;;;;;;;8.90;54.90;;;;;;5083929;28;19927;-69
2022/04/10 11:47:55;;;;;;;;;;;9.00;53.70;;;;;;5083613;28;19991;-70
2022/04/10 11:50:22;;;;;;;;;;;9.10;52.70;;;;;;5066118;28;19909;-69
2022/04/10 11:52:57;;;;;;;;;;;9.20;53.40;;;;;;5065969;28;19908;-69
2022/04/10 11:55:42;;;;;;;;;;;9.30;50.30;;;;;;5075210;28;19916;-68
2022/04/10 11:58:21;;;;;;;;;;;9.40;51.50;;;;;;5092253;28;19934;-70
2022/04/10 12:00:57;;;;;;;;;;;9.60;51.60;;;;;;5076412;28;19962;-69
2022/04/10 12:03:24;;;;;;;;;;;10.00;51.50;;;;;;5083107;28;19991;-69
2022/04/10 12:05:49;;;;;;;;;;;10.70;49.80;;;;;;5083844;28;20003;-69
2022/04/10 12:08:15;;;;;;;;;;;11.10;50.00;;;;;;5083863;28;19995;-71
2022/04/10 12:10:41;;;;;;;;;;;10.90;49.80;;;;;;5083060;28;20262;-69
2022/04/10 12:13:09;;;;;;;;;;;10.60;49.30;;;;;;5081944;28;19970;-69
2022/04/10 12:15:35;;;;;;;;;;;10.70;49.60;;;;;;5083350;28;20132;-69
2022/04/10 12:18:07;;;;;;;;;;;11.90;45.60;;;;;;5083223;28;20186;-69
2022/04/10 12:20:37;;;;;;;;;;;13.20;43.00;;;;;;5082377;28;19916;-68
2022/04/10 12:23:21;;;;;;;;;;;12.70;43.80;;;;;;5082864;28;19951;-70
2022/04/10 12:25:48;;;;;;;;;;;12.50;45.30;;;;;;5082744;28;20213;-70
2022/04/10 12:28:13;;;;;;;;;;;12.50;44.90;;;;;;5082915;28;19992;-69
2022/04/10 12:30:40;;;;;;;;;;;13.60;43.20;;;;;;5078873;28;20044;-73
2022/04/10 12:33:06;;;;;;;;;;;13.30;41.60;;;;;;5141167;23;20279;-69
2022/04/10 12:35:36;;;;;;;;;;;13.30;43.70;;;;;;5084709;28;19939;-68
2022/04/10 12:38:03;;;;;;;;;;;14.20;42.70;;;;;;5102726;28;19912;-71
2022/04/10 12:40:28;;;;;;;;;;;16.00;39.50;;;;;;5083182;28;19912;-70
2022/04/10 12:42:59;;;;;;;;;;;16.80;38.00;;;;;;5081600;28;19919;-69
2022/04/10 12:45:24;;;;;;;;;;;15.70;38.30;;;;;;5096957;28;20227;-71
2022/04/10 12:47:50;;;;;;;;;;;14.80;40.60;;;;;;5103477;28;19916;-71
2022/04/10 12:50:19;;;;;;;;;;;14.20;42.30;;;;;;5102304;28;19919;-71
2022/04/10 12:52:45;;;;;;;;;;;13.50;43.40;;;;;;5102237;28;20218;-71
2022/04/10 12:55:22;;;;;;;;;;;13.10;45.00;;;;;;5085894;28;19908;-71
2022/04/10 12:57:58;;;;;;;;;;;13.00;44.60;;;;;;5102473;28;19983;-71
2022/04/10 13:00:29;;;;;;;;;;;14.50;41.30;;;;;;5102506;28;19908;-71
2022/04/10 13:02:55;;;;;;;;;;;17.00;37.10;;;;;;5100399;28;19912;-71
2022/04/10 13:05:21;;;;;;;;;;;19.30;33.70;;;;;;5103807;28;19979;-71
2022/04/10 13:08:00;;;;;;;;;;;18.90;32.70;;;;;;5103814;28;19912;-70
2022/04/10 13:10:27;;;;;;;;;;;16.70;36.00;;;;;;5068772;28;19953;-70
2022/04/10 13:13:03;;;;;;;;;;;14.70;38.90;;;;;;5103194;28;19908;-70
2022/04/10 13:15:36;;;;;;;;;;;13.40;42.40;;;;;;5068578;28;20171;-69
2022/04/10 13:18:03;;;;;;;;;;;12.70;45.80;;;;;;5103301;28;19908;-70
2022/04/10 13:20:29;;;;;;;;;;;15.60;41.50;;;;;;5085450;28;19978;-70
2022/04/10 13:22:55;;;;;;;;;;;17.10;38.00;;;;;;5085131;28;19908;-70
2022/04/10 13:25:20;;;;;;;;;;;18.90;35.60;;;;;;5093644;28;19912;-70
2022/04/10 13:27:46;;;;;;;;;;;21.20;30.40;;;;;;5103098;28;19957;-70
2022/04/10 13:30:12;;;;;;;;;;;22.70;30.00;;;;;;5098677;28;19908;-71
2022/04/10 13:32:38;;;;;;;;;;;23.30;29.20;;;;;;5085902;28;19912;-71
2022/04/10 13:35:04;;;;;;;;;;;24.00;28.70;;;;;;5103169;28;19908;-70
2022/04/10 13:37:30;;;;;;;;;;;25.70;27.80;;;;;;5085046;28;19908;-73
2022/04/10 13:39:56;;;;;;;;;;;24.80;27.50;;;;;;5067746;28;20172;-69
2022/04/10 13:42:22;;;;;;;;;;;24.70;26.70;;;;;;5102466;28;19908;-70
2022/04/10 13:44:48;;;;;;;;;;;26.00;26.60;;;;;;5101736;28;19912;-69
2022/04/10 13:47:14;;;;;;;;;;;25.30;26.20;;;;;;5084424;28;19908;-73
2022/04/10 13:49:40;;;;;;;;;;;26.10;25.60;;;;;;5068239;28;19956;-70
2022/04/10 13:52:06;;;;;;;;;;;26.80;26.00;;;;;;5102526;28;20325;-69
2022/04/10 13:54:31;;;;;;;;;;;28.10;24.60;;;;;;5084925;28;19915;-72
2022/04/10 13:56:57;;;;;;;;;;;28.20;24.50;;;;;;5088928;28;19912;-70
2022/04/10 13:59:23;;;;;;;;;;;27.60;24.40;;;;;;5101503;28;20249;-68
2022/04/10 14:01:49;;;;;;;;;;;25.80;25.40;;;;;;5101636;28;19908;-67
2022/04/10 14:04:14;;;;;;;;;;;27.00;24.60;;;;;;5098357;28;19908;-67
2022/04/10 14:06:40;;;;;;;;;;;24.60;25.40;;;;;;5101647;28;19908;-67
2022/04/10 14:09:06;;;;;;;;;;;24.50;25.90;;;;;;5102017;28;19920;-67
2022/04/10 14:11:32;;;;;;;;;;;24.50;26.10;;;;;;5101792;28;19908;-67
2022/04/10 14:13:58;;;;;;;;;;;24.70;26.20;;;;;;5102933;28;20218;-67
2022/04/10 14:16:25;;;;;;;;;;;25.70;25.30;;;;;;5101451;28;19944;-66
2022/04/10 14:18:51;;;;;;;;;;;25.60;25.70;;;;;;5102696;28;19955;-66
2022/04/10 14:21:17;;;;;;;;;;;26.50;25.00;;;;;;5102299;28;19908;-66
2022/04/10 14:23:42;;;;;;;;;;;26.80;24.50;;;;;;5101473;28;19908;-67
2022/04/10 14:26:08;;;;;;;;;;;26.00;24.20;;;;;;5102701;28;19908;-66
2022/04/10 14:28:35;;;;;;;;;;;26.50;24.50;;;;;;5102528;28;19912;-66
2022/04/10 14:31:00;;;;;;;;;;;24.30;25.60;;;;;;5101856;28;19935;-66
2022/04/10 14:33:26;;;;;;;;;;;20.60;28.40;;;;;;5101577;28;19919;-65
2022/04/10 14:35:52;;;;;;;;;;;19.00;31.10;;;;;;5068105;28;19908;-66